createdAt,value
2023-03-06T00:00:50.040Z,80.09
2023-03-06T00:05:51.497Z,80.27
2023-03-06T00:10:53.596Z,80.24
2023-03-06T00:15:58.839Z,80.04
2023-03-06T00:21:00.412Z,80.23
2023-03-06T00:26:02.076Z,80.17
2023-03-06T00:31:04.150Z,80.42
2023-03-06T00:36:06.327Z,80.61
2023-03-06T00:41:10.515Z,80.38
2023-03-06T00:46:12.044Z,80.47
2023-03-06T00:51:14.116Z,80.81
2023-03-06T00:56:15.660Z,81.08
2023-03-06T01:01:17.276Z,80.85
2023-03-06T01:06:18.825Z,80.74
2023-03-06T01:11:20.472Z,81.02
2023-03-06T01:16:22.259Z,81.42
2023-03-06T01:21:23.712Z,81.80
2023-03-06T01:26:25.230Z,82.01
2023-03-06T01:31:26.844Z,82.08
2023-03-06T01:36:28.487Z,82.30
2023-03-06T01:41:30.234Z,82.08
2023-03-06T01:46:41.805Z,82.08
2023-03-06T01:52:07.363Z,82.67
2023-03-06T01:57:14.805Z,83.81
2023-03-06T02:02:16.448Z,83.39
2023-03-06T02:07:20.273Z,84.15
2023-03-06T02:12:22.115Z,84.26
2023-03-06T02:17:24.297Z,83.82
2023-03-06T02:22:36.083Z,83.85
2023-03-06T02:27:37.718Z,83.98
2023-03-06T02:32:39.177Z,83.87
2023-03-06T02:37:40.953Z,83.72
2023-03-06T02:42:50.666Z,83.90
2023-03-06T02:47:52.100Z,84.10
2023-03-06T02:52:53.568Z,83.86
2023-03-06T02:57:55.028Z,84.27
2023-03-06T03:02:56.711Z,84.37
2023-03-06T03:07:58.621Z,84.25
2023-03-06T03:13:00.110Z,84.27
2023-03-06T03:18:01.591Z,84.46
2023-03-06T03:23:03.712Z,84.58
2023-03-06T03:28:05.169Z,84.58
2023-03-06T03:33:07.075Z,84.82
2023-03-06T03:38:08.595Z,85.80
2023-03-06T03:43:10.052Z,85.53
2023-03-06T03:48:11.974Z,86.16
2023-03-06T03:53:13.721Z,87.14
2023-03-06T03:58:15.701Z,86.98
2023-03-06T04:03:17.310Z,86.91
2023-03-06T04:08:18.707Z,87.03
2023-03-06T04:13:22.255Z,87.34
2023-03-06T04:18:24.013Z,87.16
2023-03-06T04:23:26.343Z,88.48
2023-03-06T04:28:27.799Z,89.52
2023-03-06T04:33:29.302Z,89.34
2023-03-06T04:38:30.945Z,88.99
2023-03-06T04:43:32.469Z,89.20
2023-03-06T04:48:36.623Z,89.44
2023-03-06T04:53:38.149Z,91.35
2023-03-06T04:58:39.631Z,90.86
2023-03-06T05:03:41.095Z,90.18
2023-03-06T05:08:42.550Z,90.04
2023-03-06T05:13:44.123Z,89.85
2023-03-06T05:18:45.630Z,88.28
2023-03-06T05:23:47.570Z,88.94
2023-03-06T05:28:49.049Z,89.28
2023-03-06T05:33:50.457Z,89.96
2023-03-06T05:38:52.011Z,89.15
2023-03-06T05:43:53.677Z,89.28
2023-03-06T05:48:56.198Z,87.83
2023-03-06T05:53:57.953Z,87.98
2023-03-06T05:58:59.387Z,88.04
2023-03-06T06:04:00.831Z,87.20
2023-03-06T06:09:02.228Z,86.76
2023-03-06T06:14:03.661Z,85.91
2023-03-06T06:19:05.115Z,86.09
2023-03-06T06:24:06.773Z,85.29
2023-03-06T06:29:08.561Z,85.25
2023-03-06T06:34:11.009Z,84.20
2023-03-06T06:39:16.138Z,83.64
2023-03-06T06:44:18.466Z,83.69
2023-03-06T06:49:19.955Z,82.48
2023-03-06T06:54:22.323Z,82.50
2023-03-06T06:59:23.994Z,81.42
2023-03-06T07:04:25.454Z,81.60
2023-03-06T07:09:26.955Z,81.13
2023-03-06T07:14:28.405Z,81.36
2023-03-06T07:19:29.851Z,79.74
2023-03-06T07:24:31.331Z,78.71
2023-03-06T07:29:34.438Z,78.88
2023-03-06T07:34:35.918Z,78.62
2023-03-06T07:39:37.361Z,78.00
2023-03-06T07:44:38.891Z,78.68
2023-03-06T07:49:40.316Z,77.82
2023-03-06T07:54:42.043Z,78.03
2023-03-06T07:59:43.517Z,76.98
2023-03-06T08:04:44.999Z,76.62
2023-03-06T08:09:46.438Z,75.05
2023-03-06T08:14:47.917Z,74.98
2023-03-06T08:19:49.367Z,74.46
2023-03-06T08:24:55.003Z,73.89
2023-03-06T08:29:56.482Z,75.16
2023-03-06T08:34:57.969Z,73.89
2023-03-06T08:39:59.527Z,74.73
2023-03-06T08:45:01.004Z,73.66
2023-03-06T08:50:02.515Z,72.82
2023-03-06T08:55:04.193Z,74.18
2023-03-06T09:00:09.063Z,74.64
2023-03-06T09:05:11.076Z,74.81
2023-03-06T09:10:17.841Z,74.16
2023-03-06T09:15:21.114Z,73.04
2023-03-06T09:20:22.801Z,73.89
2023-03-06T09:25:25.082Z,71.71
2023-03-06T09:30:26.548Z,71.70
2023-03-06T09:35:28.077Z,72.99
2023-03-06T09:40:55.741Z,70.49
2023-03-06T09:45:59.912Z,69.65
2023-03-06T09:51:10.662Z,69.24
2023-03-06T09:56:20.342Z,69.85
2023-03-06T10:01:29.549Z,68.05
2023-03-06T10:06:36.817Z,67.99
2023-03-06T10:11:46.847Z,66.77
2023-03-06T10:16:48.529Z,66.67
2023-03-06T10:21:58.508Z,63.91
2023-03-06T10:27:12.703Z,64.01
2023-03-06T10:32:34.277Z,64.03
2023-03-06T10:37:41.124Z,63.89
2023-03-06T10:42:42.626Z,62.23
2023-03-06T10:47:44.187Z,63.14
2023-03-06T10:52:57.865Z,63.93
2023-03-06T10:58:18.376Z,61.59
2023-03-06T11:03:24.481Z,61.09
2023-03-06T11:08:26.029Z,60.89
2023-03-06T11:13:30.617Z,60.61
2023-03-06T11:18:38.440Z,60.65
2023-03-06T11:23:47.206Z,61.08
2023-03-06T11:29:08.933Z,60.62
2023-03-06T11:34:51.673Z,60.10
2023-03-06T11:40:02.826Z,59.73
2023-03-06T11:45:04.399Z,58.33
2023-03-06T11:50:24.723Z,57.80
2023-03-06T11:55:44.183Z,58.92
2023-03-06T12:01:14.620Z,57.93
2023-03-06T12:06:45.826Z,58.59
2023-03-06T12:12:20.859Z,58.80
2023-03-06T12:17:28.248Z,58.13
2023-03-06T12:22:53.384Z,58.24
2023-03-06T12:28:23.122Z,59.02
2023-03-06T12:33:30.538Z,56.96
2023-03-06T12:39:01.206Z,57.71
2023-03-06T12:44:05.631Z,56.19
2023-03-06T12:49:31.492Z,56.80
2023-03-06T12:54:38.635Z,56.91
2023-03-06T12:59:48.583Z,56.25
2023-03-06T13:05:28.688Z,56.57
2023-03-06T13:10:35.852Z,55.78
2023-03-06T13:15:39.048Z,57.24
2023-03-06T13:20:42.903Z,56.98
2023-03-06T13:25:50.363Z,57.84
2023-03-06T13:30:53.277Z,58.27
2023-03-06T13:35:56.890Z,57.94
2023-03-06T13:41:23.011Z,56.92
2023-03-06T13:46:35.060Z,56.85
2023-03-06T13:52:10.516Z,62.60
2023-03-06T13:57:21.290Z,65.79
2023-03-06T14:02:54.764Z,67.71
2023-03-06T14:08:07.508Z,70.06
2023-03-06T14:13:23.319Z,69.98
2023-03-06T14:18:47.746Z,70.51
2023-03-06T14:24:00.421Z,71.33
2023-03-06T14:29:03.123Z,71.62
2023-03-06T14:34:15.924Z,71.19
2023-03-06T14:39:43.962Z,71.51
2023-03-06T14:44:47.284Z,71.61
2023-03-06T14:50:43.818Z,71.25
2023-03-06T14:55:53.166Z,70.67
2023-03-06T15:00:56.249Z,70.52
2023-03-06T15:05:58.048Z,69.31
2023-03-06T15:11:06.092Z,68.81
2023-03-06T15:16:13.433Z,68.67
2023-03-06T15:21:18.744Z,68.30
2023-03-06T15:26:29.539Z,68.81
2023-03-06T15:31:33.026Z,69.01
2023-03-06T15:36:43.060Z,68.99
2023-03-06T15:41:44.957Z,68.55
2023-03-06T15:46:47.293Z,68.21
2023-03-06T15:51:49.940Z,68.54
2023-03-06T15:56:52.148Z,68.88
2023-03-06T16:01:54.202Z,68.86
2023-03-06T16:06:55.673Z,69.35
2023-03-06T16:11:57.265Z,69.45
2023-03-06T16:16:59.572Z,69.93
2023-03-06T16:22:01.030Z,70.02
2023-03-06T16:27:02.860Z,69.97
2023-03-06T16:32:05.433Z,70.00
2023-03-06T16:37:11.375Z,70.31
2023-03-06T16:42:12.935Z,70.89
2023-03-06T16:47:14.426Z,70.70
2023-03-06T16:52:16.272Z,70.97
2023-03-06T16:57:17.700Z,71.33
2023-03-06T17:02:19.170Z,71.59
2023-03-06T17:07:20.593Z,71.55
2023-03-06T17:12:21.998Z,71.50
2023-03-06T17:17:23.460Z,71.73
2023-03-06T17:22:25.444Z,71.52
2023-03-06T17:27:26.895Z,71.42
2023-03-06T17:32:28.830Z,70.45
2023-03-06T17:37:31.955Z,71.05
2023-03-06T17:42:35.280Z,71.39
2023-03-06T17:47:36.856Z,71.84
2023-03-06T17:52:38.974Z,71.52
2023-03-06T17:57:40.414Z,71.16
2023-03-06T18:02:41.900Z,71.78
2023-03-06T18:07:43.894Z,71.15
2023-03-06T18:12:45.466Z,72.04
2023-03-06T18:17:46.999Z,72.21
2023-03-06T18:22:48.448Z,71.96
2023-03-06T18:27:49.865Z,71.90
2023-03-06T18:32:51.322Z,72.23
2023-03-06T18:37:52.791Z,72.82
2023-03-06T18:42:54.765Z,72.30
2023-03-06T18:47:56.264Z,72.17
2023-03-06T18:52:57.747Z,72.29
2023-03-06T18:57:59.252Z,72.32
2023-03-06T19:03:00.681Z,71.83
2023-03-06T19:08:02.101Z,71.82
2023-03-06T19:13:04.628Z,71.57
2023-03-06T19:18:06.054Z,72.19
2023-03-06T19:23:08.007Z,72.12
2023-03-06T19:28:09.459Z,71.82
2023-03-06T19:33:10.869Z,72.15
2023-03-06T19:38:12.504Z,71.73
2023-03-06T19:43:13.931Z,71.74
2023-03-06T19:48:16.147Z,72.07
2023-03-06T19:53:17.684Z,72.27
2023-03-06T19:58:19.114Z,71.30
2023-03-06T20:03:20.568Z,71.61
2023-03-06T20:08:21.980Z,73.69
2023-03-06T20:13:23.650Z,73.95
2023-03-06T20:18:25.146Z,74.48
2023-03-06T20:23:27.524Z,75.34
2023-03-06T20:28:29.013Z,75.45
2023-03-06T20:33:30.427Z,76.03
2023-03-06T20:38:31.904Z,77.15
2023-03-06T20:43:33.311Z,77.38
2023-03-06T20:48:34.948Z,78.30
2023-03-06T20:53:36.628Z,78.09
2023-03-06T20:58:38.085Z,78.06
2023-03-06T21:03:39.531Z,78.77
2023-03-06T21:08:41.102Z,79.21
2023-03-06T21:13:42.898Z,79.39
2023-03-06T21:18:45.299Z,79.71
2023-03-06T21:23:48.018Z,79.54
2023-03-06T21:28:49.847Z,79.56
2023-03-06T21:33:51.747Z,79.33
2023-03-06T21:38:54.214Z,79.69
2023-03-06T21:43:57.284Z,79.82
2023-03-06T21:48:59.142Z,79.57
2023-03-06T21:54:02.013Z,79.46
2023-03-06T21:59:03.454Z,79.36
2023-03-06T22:04:04.891Z,79.74
2023-03-06T22:09:06.707Z,79.83
2023-03-06T22:14:08.266Z,80.05
2023-03-06T22:19:09.719Z,79.50
2023-03-06T22:24:11.149Z,79.78
2023-03-06T22:29:12.571Z,79.60
2023-03-06T22:34:13.990Z,80.13
2023-03-06T22:39:15.412Z,80.47
2023-03-06T22:44:19.183Z,79.65
2023-03-06T22:49:20.694Z,80.47
2023-03-06T22:54:22.232Z,80.65
2023-03-06T22:59:23.698Z,81.53
2023-03-06T23:04:25.159Z,81.34
2023-03-06T23:09:26.882Z,81.10
2023-03-06T23:14:28.383Z,81.67
2023-03-06T23:19:29.863Z,81.71
2023-03-06T23:24:34.819Z,81.87
2023-03-06T23:29:37.650Z,81.56
2023-03-06T23:34:39.124Z,82.04
2023-03-06T23:39:40.550Z,82.03
2023-03-06T23:44:42.012Z,81.73
2023-03-06T23:49:43.599Z,82.24
2023-03-06T23:54:45.041Z,82.65
2023-03-06T23:59:46.577Z,83.01
